sensor_id;sensor_type;location;lat;lon;timestamp;temperature;humidity
5466;DHT22;2755;50.728;7.108;2022-08-19T00:00:25;18.50;99.90
5466;DHT22;2755;50.728;7.108;2022-08-19T00:02:51;18.70;99.90
5466;DHT22;2755;50.728;7.108;2022-08-19T00:05:18;18.40;99.90
5466;DHT22;2755;50.728;7.108;2022-08-19T00:07:44;17.90;99.90
5466;DHT22;2755;50.728;7.108;2022-08-19T00:10:13;18.50;99.90
5466;DHT22;2755;50.728;7.108;2022-08-19T00:12:38;18.00;99.90
5466;DHT22;2755;50.728;7.108;2022-08-19T00:15:07;18.40;99.90
5466;DHT22;2755;50.728;7.108;2022-08-19T00:17:39;18.40;99.90
5466;DHT22;2755;50.728;7.108;2022-08-19T00:20:05;19.30;99.90
5466;DHT22;2755;50.728;7.108;2022-08-19T00:22:31;18.30;99.90
5466;DHT22;2755;50.728;7.108;2022-08-19T00:24:57;18.70;99.90
5466;DHT22;2755;50.728;7.108;2022-08-19T00:27:23;17.80;99.90
5466;DHT22;2755;50.728;7.108;2022-08-19T00:29:49;18.30;99.90
5466;DHT22;2755;50.728;7.108;2022-08-19T00:32:15;18.20;99.90
5466;DHT22;2755;50.728;7.108;2022-08-19T00:34:40;18.20;99.90
5466;DHT22;2755;50.728;7.108;2022-08-19T00:41:58;18.50;99.90
5466;DHT22;2755;50.728;7.108;2022-08-19T00:44:26;18.10;99.90
5466;DHT22;2755;50.728;7.108;2022-08-19T00:46:54;18.10;99.90
5466;DHT22;2755;50.728;7.108;2022-08-19T00:52:09;18.10;99.90
5466;DHT22;2755;50.728;7.108;2022-08-19T00:54:38;18.10;99.90
5466;DHT22;2755;50.728;7.108;2022-08-19T00:57:06;18.10;99.90
5466;DHT22;2755;50.728;7.108;2022-08-19T00:59:35;18.10;99.90
5466;DHT22;2755;50.728;7.108;2022-08-19T01:02:02;18.20;99.90
5466;DHT22;2755;50.728;7.108;2022-08-19T01:06:55;17.90;99.90
5466;DHT22;2755;50.728;7.108;2022-08-19T01:09:21;18.60;99.90
5466;DHT22;2755;50.728;7.108;2022-08-19T01:11:47;17.90;99.90
5466;DHT22;2755;50.728;7.108;2022-08-19T01:14:13;18.00;99.90
5466;DHT22;2755;50.728;7.108;2022-08-19T01:16:40;18.00;99.90
5466;DHT22;2755;50.728;7.108;2022-08-19T01:19:15;18.10;99.90
5466;DHT22;2755;50.728;7.108;2022-08-19T01:21:58;17.90;99.90
5466;DHT22;2755;50.728;7.108;2022-08-19T01:24:25;18.10;99.90
5466;DHT22;2755;50.728;7.108;2022-08-19T01:29:18;18.20;99.90
5466;DHT22;2755;50.728;7.108;2022-08-19T01:31:43;18.00;99.90
5466;DHT22;2755;50.728;7.108;2022-08-19T01:36:39;18.40;99.90
5466;DHT22;2755;50.728;7.108;2022-08-19T01:39:09;18.60;99.90
5466;DHT22;2755;50.728;7.108;2022-08-19T01:44:03;17.80;99.90
5466;DHT22;2755;50.728;7.108;2022-08-19T01:46:30;17.80;99.90
5466;DHT22;2755;50.728;7.108;2022-08-19T01:48:57;16.90;99.90
5466;DHT22;2755;50.728;7.108;2022-08-19T01:53:50;17.80;99.90
5466;DHT22;2755;50.728;7.108;2022-08-19T01:58:49;17.80;99.90
5466;DHT22;2755;50.728;7.108;2022-08-19T02:01:17;17.80;99.90
5466;DHT22;2755;50.728;7.108;2022-08-19T02:08:36;17.60;99.90
5466;DHT22;2755;50.728;7.108;2022-08-19T02:11:02;17.60;99.90
5466;DHT22;2755;50.728;7.108;2022-08-19T02:13:28;18.00;99.90
5466;DHT22;2755;50.728;7.108;2022-08-19T02:23:14;17.50;99.90
5466;DHT22;2755;50.728;7.108;2022-08-19T02:25:40;17.50;99.90
5466;DHT22;2755;50.728;7.108;2022-08-19T02:28:06;17.60;99.90
5466;DHT22;2755;50.728;7.108;2022-08-19T02:30:33;17.60;99.90
5466;DHT22;2755;50.728;7.108;2022-08-19T02:32:58;17.40;99.90
5466;DHT22;2755;50.728;7.108;2022-08-19T02:35:25;17.60;99.90
5466;DHT22;2755;50.728;7.108;2022-08-19T02:37:51;17.30;99.90
5466;DHT22;2755;50.728;7.108;2022-08-19T02:40:36;17.70;99.90
5466;DHT22;2755;50.728;7.108;2022-08-19T02:43:06;17.70;99.90
5466;DHT22;2755;50.728;7.108;2022-08-19T02:45:37;18.50;99.90
5466;DHT22;2755;50.728;7.108;2022-08-19T02:48:03;17.80;99.90
5466;DHT22;2755;50.728;7.108;2022-08-19T02:50:31;17.50;99.90
5466;DHT22;2755;50.728;7.108;2022-08-19T02:55:23;17.80;99.90
5466;DHT22;2755;50.728;7.108;2022-08-19T02:57:49;17.50;99.90
5466;DHT22;2755;50.728;7.108;2022-08-19T03:00:15;17.60;99.90
5466;DHT22;2755;50.728;7.108;2022-08-19T03:05:09;17.80;99.90
5466;DHT22;2755;50.728;7.108;2022-08-19T03:07:36;17.50;99.90
5466;DHT22;2755;50.728;7.108;2022-08-19T03:10:02;17.50;99.90
5466;DHT22;2755;50.728;7.108;2022-08-19T03:14:54;17.80;99.90
5466;DHT22;2755;50.728;7.108;2022-08-19T03:22:12;17.40;99.90
5466;DHT22;2755;50.728;7.108;2022-08-19T03:24:38;17.60;99.90
5466;DHT22;2755;50.728;7.108;2022-08-19T03:27:04;17.40;99.90
5466;DHT22;2755;50.728;7.108;2022-08-19T03:29:31;17.50;99.90
5466;DHT22;2755;50.728;7.108;2022-08-19T03:32:00;17.40;99.90
5466;DHT22;2755;50.728;7.108;2022-08-19T03:34:29;17.20;99.90
5466;DHT22;2755;50.728;7.108;2022-08-19T03:36:58;17.40;99.90
5466;DHT22;2755;50.728;7.108;2022-08-19T03:39:25;17.70;99.90
5466;DHT22;2755;50.728;7.108;2022-08-19T03:41:53;17.40;99.90
5466;DHT22;2755;50.728;7.108;2022-08-19T03:46:51;17.50;99.90
5466;DHT22;2755;50.728;7.108;2022-08-19T03:49:17;17.50;99.90
5466;DHT22;2755;50.728;7.108;2022-08-19T03:56:38;17.20;99.90
5466;DHT22;2755;50.728;7.108;2022-08-19T03:59:06;17.30;99.90
5466;DHT22;2755;50.728;7.108;2022-08-19T04:01:32;17.20;99.90
5466;DHT22;2755;50.728;7.108;2022-08-19T04:03:58;17.20;99.90
5466;DHT22;2755;50.728;7.108;2022-08-19T04:06:28;16.90;99.90
5466;DHT22;2755;50.728;7.108;2022-08-19T04:08:57;17.20;99.90
5466;DHT22;2755;50.728;7.108;2022-08-19T04:11:27;17.10;99.90
5466;DHT22;2755;50.728;7.108;2022-08-19T04:13:54;17.30;99.90
5466;DHT22;2755;50.728;7.108;2022-08-19T04:16:21;17.20;99.90
5466;DHT22;2755;50.728;7.108;2022-08-19T04:18:48;17.00;99.90
5466;DHT22;2755;50.728;7.108;2022-08-19T04:21:23;17.10;99.90
5466;DHT22;2755;50.728;7.108;2022-08-19T04:23:48;17.20;99.90
5466;DHT22;2755;50.728;7.108;2022-08-19T04:28:45;16.90;99.90
5466;DHT22;2755;50.728;7.108;2022-08-19T04:31:23;16.80;99.90
5466;DHT22;2755;50.728;7.108;2022-08-19T04:33:56;17.20;99.90
5466;DHT22;2755;50.728;7.108;2022-08-19T04:36:25;17.30;99.90
5466;DHT22;2755;50.728;7.108;2022-08-19T04:38:58;17.00;99.90
5466;DHT22;2755;50.728;7.108;2022-08-19T04:41:25;17.10;99.90
5466;DHT22;2755;50.728;7.108;2022-08-19T04:44:09;17.10;99.90
5466;DHT22;2755;50.728;7.108;2022-08-19T04:46:35;17.40;99.90
5466;DHT22;2755;50.728;7.108;2022-08-19T04:49:02;17.10;99.90
5466;DHT22;2755;50.728;7.108;2022-08-19T04:53:56;17.40;99.90
5466;DHT22;2755;50.728;7.108;2022-08-19T04:56:22;17.50;99.90
5466;DHT22;2755;50.728;7.108;2022-08-19T04:58:52;17.20;99.90
5466;DHT22;2755;50.728;7.108;2022-08-19T05:01:23;18.40;99.90
5466;DHT22;2755;50.728;7.108;2022-08-19T05:03:50;17.50;99.90
5466;DHT22;2755;50.728;7.108;2022-08-19T05:06:17;18.30;99.90
5466;DHT22;2755;50.728;7.108;2022-08-19T05:08:44;17.40;99.90
5466;DHT22;2755;50.728;7.108;2022-08-19T05:13:37;17.00;99.90
5466;DHT22;2755;50.728;7.108;2022-08-19T05:16:03;17.30;99.90
5466;DHT22;2755;50.728;7.108;2022-08-19T05:21:16;17.60;99.90
5466;DHT22;2755;50.728;7.108;2022-08-19T05:26:27;17.90;99.90
5466;DHT22;2755;50.728;7.108;2022-08-19T05:28:54;17.80;99.90
5466;DHT22;2755;50.728;7.108;2022-08-19T05:33:47;17.80;99.90
5466;DHT22;2755;50.728;7.108;2022-08-19T05:36:12;17.90;99.90
5466;DHT22;2755;50.728;7.108;2022-08-19T05:38:39;18.00;99.90
5466;DHT22;2755;50.728;7.108;2022-08-19T05:41:13;18.00;99.90
5466;DHT22;2755;50.728;7.108;2022-08-19T05:43:38;17.90;99.90
5466;DHT22;2755;50.728;7.108;2022-08-19T05:46:06;17.90;99.90
5466;DHT22;2755;50.728;7.108;2022-08-19T05:48:33;18.20;99.90
5466;DHT22;2755;50.728;7.108;2022-08-19T05:51:04;18.00;99.90
5466;DHT22;2755;50.728;7.108;2022-08-19T05:53:32;18.20;99.90
5466;DHT22;2755;50.728;7.108;2022-08-19T05:56:04;18.40;99.90
5466;DHT22;2755;50.728;7.108;2022-08-19T06:00:57;18.40;99.90
5466;DHT22;2755;50.728;7.108;2022-08-19T06:03:23;18.60;99.90
5466;DHT22;2755;50.728;7.108;2022-08-19T06:05:49;19.10;99.90
5466;DHT22;2755;50.728;7.108;2022-08-19T06:20:28;18.80;99.90
5466;DHT22;2755;50.728;7.108;2022-08-19T06:25:20;19.30;99.90
5466;DHT22;2755;50.728;7.108;2022-08-19T06:27:46;19.20;99.90
5466;DHT22;2755;50.728;7.108;2022-08-19T06:30:12;19.30;99.90
5466;DHT22;2755;50.728;7.108;2022-08-19T06:32:38;19.00;99.90
5466;DHT22;2755;50.728;7.108;2022-08-19T06:35:04;19.60;99.90
5466;DHT22;2755;50.728;7.108;2022-08-19T06:37:30;20.20;99.90
5466;DHT22;2755;50.728;7.108;2022-08-19T06:39:56;19.70;99.90
5466;DHT22;2755;50.728;7.108;2022-08-19T06:42:22;20.00;99.90
5466;DHT22;2755;50.728;7.108;2022-08-19T06:44:48;19.90;99.90
5466;DHT22;2755;50.728;7.108;2022-08-19T06:47:17;20.10;99.90
5466;DHT22;2755;50.728;7.108;2022-08-19T06:52:09;20.90;99.90
5466;DHT22;2755;50.728;7.108;2022-08-19T06:54:38;21.30;99.90
5466;DHT22;2755;50.728;7.108;2022-08-19T06:57:05;21.30;99.90
5466;DHT22;2755;50.728;7.108;2022-08-19T06:59:32;22.20;99.90
5466;DHT22;2755;50.728;7.108;2022-08-19T07:02:00;21.90;99.90
5466;DHT22;2755;50.728;7.108;2022-08-19T07:04:29;22.00;99.90
5466;DHT22;2755;50.728;7.108;2022-08-19T07:07:09;22.50;99.90
5466;DHT22;2755;50.728;7.108;2022-08-19T07:09:39;22.30;99.90
5466;DHT22;2755;50.728;7.108;2022-08-19T07:12:07;22.40;99.90
5466;DHT22;2755;50.728;7.108;2022-08-19T07:14:33;22.70;99.90
5466;DHT22;2755;50.728;7.108;2022-08-19T07:17:04;22.60;99.90
5466;DHT22;2755;50.728;7.108;2022-08-19T07:19:30;24.00;99.90
5466;DHT22;2755;50.728;7.108;2022-08-19T07:21:57;23.10;99.90
5466;DHT22;2755;50.728;7.108;2022-08-19T07:24:25;22.80;99.90
5466;DHT22;2755;50.728;7.108;2022-08-19T07:26:53;23.40;99.90
5466;DHT22;2755;50.728;7.108;2022-08-19T07:29:22;23.30;99.90
5466;DHT22;2755;50.728;7.108;2022-08-19T07:31:49;23.40;99.90
5466;DHT22;2755;50.728;7.108;2022-08-19T07:34:15;23.60;99.90
5466;DHT22;2755;50.728;7.108;2022-08-19T07:36:42;24.00;99.90
5466;DHT22;2755;50.728;7.108;2022-08-19T07:39:17;24.60;99.90
5466;DHT22;2755;50.728;7.108;2022-08-19T07:41:44;24.90;99.90
5466;DHT22;2755;50.728;7.108;2022-08-19T07:44:11;25.20;99.90
5466;DHT22;2755;50.728;7.108;2022-08-19T07:46:42;25.00;99.90
5466;DHT22;2755;50.728;7.108;2022-08-19T07:49:10;25.30;99.90
5466;DHT22;2755;50.728;7.108;2022-08-19T07:51:40;25.70;99.90
5466;DHT22;2755;50.728;7.108;2022-08-19T07:58:57;25.90;99.90
5466;DHT22;2755;50.728;7.108;2022-08-19T08:01:25;26.90;99.90
5466;DHT22;2755;50.728;7.108;2022-08-19T08:03:54;26.00;99.50
5466;DHT22;2755;50.728;7.108;2022-08-19T08:06:39;26.10;99.20
5466;DHT22;2755;50.728;7.108;2022-08-19T08:09:35;26.60;99.40
5466;DHT22;2755;50.728;7.108;2022-08-19T08:12:07;26.50;98.20
5466;DHT22;2755;50.728;7.108;2022-08-19T08:14:42;26.70;97.70
5466;DHT22;2755;50.728;7.108;2022-08-19T08:17:10;26.30;97.50
5466;DHT22;2755;50.728;7.108;2022-08-19T08:19:37;26.80;97.30
5466;DHT22;2755;50.728;7.108;2022-08-19T08:22:03;27.50;96.60
5466;DHT22;2755;50.728;7.108;2022-08-19T08:24:32;27.60;96.00
5466;DHT22;2755;50.728;7.108;2022-08-19T08:27:00;28.90;95.30
5466;DHT22;2755;50.728;7.108;2022-08-19T08:29:30;28.00;94.10
5466;DHT22;2755;50.728;7.108;2022-08-19T08:34:23;27.90;92.70
5466;DHT22;2755;50.728;7.108;2022-08-19T08:36:49;28.10;93.30
5466;DHT22;2755;50.728;7.108;2022-08-19T08:39:18;28.10;92.60
5466;DHT22;2755;50.728;7.108;2022-08-19T08:44:31;27.60;93.40
5466;DHT22;2755;50.728;7.108;2022-08-19T08:47:05;27.70;92.90
5466;DHT22;2755;50.728;7.108;2022-08-19T08:49:55;27.20;94.20
5466;DHT22;2755;50.728;7.108;2022-08-19T08:54:55;28.10;91.40
5466;DHT22;2755;50.728;7.108;2022-08-19T08:57:35;28.10;91.60
5466;DHT22;2755;50.728;7.108;2022-08-19T09:00:05;29.00;91.80
5466;DHT22;2755;50.728;7.108;2022-08-19T09:02:33;28.40;91.00
5466;DHT22;2755;50.728;7.108;2022-08-19T09:04:59;28.90;92.30
5466;DHT22;2755;50.728;7.108;2022-08-19T09:07:42;28.70;91.60
5466;DHT22;2755;50.728;7.108;2022-08-19T09:15:42;29.70;86.90
5466;DHT22;2755;50.728;7.108;2022-08-19T09:18:10;30.80;88.00
5466;DHT22;2755;50.728;7.108;2022-08-19T09:20:36;29.60;84.50
5466;DHT22;2755;50.728;7.108;2022-08-19T09:23:02;29.70;86.00
5466;DHT22;2755;50.728;7.108;2022-08-19T09:27:54;29.40;84.50
5466;DHT22;2755;50.728;7.108;2022-08-19T09:30:27;29.20;84.20
5466;DHT22;2755;50.728;7.108;2022-08-19T09:32:54;29.50;85.80
5466;DHT22;2755;50.728;7.108;2022-08-19T09:35:25;29.90;85.90
5466;DHT22;2755;50.728;7.108;2022-08-19T09:40:18;30.10;80.40
5466;DHT22;2755;50.728;7.108;2022-08-19T09:42:45;30.30;80.60
5466;DHT22;2755;50.728;7.108;2022-08-19T09:45:13;30.20;79.80
5466;DHT22;2755;50.728;7.108;2022-08-19T09:50:07;30.50;78.00
5466;DHT22;2755;50.728;7.108;2022-08-19T09:52:34;30.80;75.00
5466;DHT22;2755;50.728;7.108;2022-08-19T09:55:06;30.60;77.90
5466;DHT22;2755;50.728;7.108;2022-08-19T09:57:33;31.10;75.30
5466;DHT22;2755;50.728;7.108;2022-08-19T10:02:24;29.80;71.90
5466;DHT22;2755;50.728;7.108;2022-08-19T10:04:51;31.50;72.30
5466;DHT22;2755;50.728;7.108;2022-08-19T10:07:35;31.10;71.70
5466;DHT22;2755;50.728;7.108;2022-08-19T10:10:02;31.20;70.00
5466;DHT22;2755;50.728;7.108;2022-08-19T10:12:28;31.70;72.60
5466;DHT22;2755;50.728;7.108;2022-08-19T10:14:54;31.40;73.20
5466;DHT22;2755;50.728;7.108;2022-08-19T10:22:12;32.50;71.70
5466;DHT22;2755;50.728;7.108;2022-08-19T10:24:39;31.80;71.40
5466;DHT22;2755;50.728;7.108;2022-08-19T10:27:04;31.40;73.00
5466;DHT22;2755;50.728;7.108;2022-08-19T10:29:31;31.50;69.40
5466;DHT22;2755;50.728;7.108;2022-08-19T10:32:06;31.10;69.30
5466;DHT22;2755;50.728;7.108;2022-08-19T10:34:33;31.10;72.00
5466;DHT22;2755;50.728;7.108;2022-08-19T10:36:59;30.30;74.00
5466;DHT22;2755;50.728;7.108;2022-08-19T10:39:26;30.60;75.10
5466;DHT22;2755;50.728;7.108;2022-08-19T10:41:55;29.80;73.60
5466;DHT22;2755;50.728;7.108;2022-08-19T10:44:21;29.30;75.30
5466;DHT22;2755;50.728;7.108;2022-08-19T10:49:14;29.20;79.20
5466;DHT22;2755;50.728;7.108;2022-08-19T10:51:41;28.90;79.30
5466;DHT22;2755;50.728;7.108;2022-08-19T10:57:11;29.70;72.50
5466;DHT22;2755;50.728;7.108;2022-08-19T10:59:37;28.80;73.80
5466;DHT22;2755;50.728;7.108;2022-08-19T11:02:05;28.50;73.20
5466;DHT22;2755;50.728;7.108;2022-08-19T11:06:58;29.10;78.20
5466;DHT22;2755;50.728;7.108;2022-08-19T11:09:25;29.10;73.70
5466;DHT22;2755;50.728;7.108;2022-08-19T11:11:53;28.70;73.30
5466;DHT22;2755;50.728;7.108;2022-08-19T11:14:19;28.90;72.40
5466;DHT22;2755;50.728;7.108;2022-08-19T11:16:47;28.90;71.10
5466;DHT22;2755;50.728;7.108;2022-08-19T11:19:13;29.00;72.70
5466;DHT22;2755;50.728;7.108;2022-08-19T11:21:43;28.50;72.20
5466;DHT22;2755;50.728;7.108;2022-08-19T11:29:09;30.00;66.10
5466;DHT22;2755;50.728;7.108;2022-08-19T11:31:40;30.70;74.50
5466;DHT22;2755;50.728;7.108;2022-08-19T11:36:36;30.40;69.90
5466;DHT22;2755;50.728;7.108;2022-08-19T11:39:04;30.10;66.50
5466;DHT22;2755;50.728;7.108;2022-08-19T11:41:30;30.00;67.10
5466;DHT22;2755;50.728;7.108;2022-08-19T11:46:27;29.70;65.40
5466;DHT22;2755;50.728;7.108;2022-08-19T11:51:23;29.30;69.30
5466;DHT22;2755;50.728;7.108;2022-08-19T11:53:51;29.50;71.10
5466;DHT22;2755;50.728;7.108;2022-08-19T11:56:18;30.10;69.50
5466;DHT22;2755;50.728;7.108;2022-08-19T11:58:44;30.80;67.70
5466;DHT22;2755;50.728;7.108;2022-08-19T12:01:12;31.30;65.70
5466;DHT22;2755;50.728;7.108;2022-08-19T12:06:08;30.70;64.70
5466;DHT22;2755;50.728;7.108;2022-08-19T12:13:27;31.20;63.20
5466;DHT22;2755;50.728;7.108;2022-08-19T12:15:53;31.30;62.50
5466;DHT22;2755;50.728;7.108;2022-08-19T12:18:19;31.30;63.30
5466;DHT22;2755;50.728;7.108;2022-08-19T12:20:45;31.70;61.60
5466;DHT22;2755;50.728;7.108;2022-08-19T12:25:42;32.10;60.40
5466;DHT22;2755;50.728;7.108;2022-08-19T12:28:16;32.20;59.00
5466;DHT22;2755;50.728;7.108;2022-08-19T12:30:42;32.70;59.40
5466;DHT22;2755;50.728;7.108;2022-08-19T12:40:27;32.90;56.20
5466;DHT22;2755;50.728;7.108;2022-08-19T12:42:53;32.70;54.60
5466;DHT22;2755;50.728;7.108;2022-08-19T12:47:45;33.60;60.00
5466;DHT22;2755;50.728;7.108;2022-08-19T12:52:38;32.70;55.30
5466;DHT22;2755;50.728;7.108;2022-08-19T12:55:05;32.60;57.90
5466;DHT22;2755;50.728;7.108;2022-08-19T12:57:32;32.40;56.40
5466;DHT22;2755;50.728;7.108;2022-08-19T13:02:29;32.00;57.80
5466;DHT22;2755;50.728;7.108;2022-08-19T13:04:57;32.00;57.80
5466;DHT22;2755;50.728;7.108;2022-08-19T13:09:52;32.20;58.30
5466;DHT22;2755;50.728;7.108;2022-08-19T13:22:07;29.60;61.00
5466;DHT22;2755;50.728;7.108;2022-08-19T13:27:00;28.80;60.30
5466;DHT22;2755;50.728;7.108;2022-08-19T13:32:10;28.70;60.50
5466;DHT22;2755;50.728;7.108;2022-08-19T13:34:58;28.70;59.30
5466;DHT22;2755;50.728;7.108;2022-08-19T13:42:45;28.40;62.50
5466;DHT22;2755;50.728;7.108;2022-08-19T13:45:12;28.30;62.20
5466;DHT22;2755;50.728;7.108;2022-08-19T13:50:09;28.10;65.00
5466;DHT22;2755;50.728;7.108;2022-08-19T13:52:37;28.10;63.20
5466;DHT22;2755;50.728;7.108;2022-08-19T13:55:04;27.30;65.20
5466;DHT22;2755;50.728;7.108;2022-08-19T13:59:57;27.60;63.70
5466;DHT22;2755;50.728;7.108;2022-08-19T14:07:15;27.70;63.80
5466;DHT22;2755;50.728;7.108;2022-08-19T14:09:41;27.70;63.20
5466;DHT22;2755;50.728;7.108;2022-08-19T14:12:07;27.40;65.10
5466;DHT22;2755;50.728;7.108;2022-08-19T14:14:39;27.50;60.10
5466;DHT22;2755;50.728;7.108;2022-08-19T14:17:08;27.40;61.40
5466;DHT22;2755;50.728;7.108;2022-08-19T14:29:19;27.70;66.10
5466;DHT22;2755;50.728;7.108;2022-08-19T14:36:38;27.40;64.30
5466;DHT22;2755;50.728;7.108;2022-08-19T14:39:04;27.20;62.40
5466;DHT22;2755;50.728;7.108;2022-08-19T14:41:30;27.80;63.00
5466;DHT22;2755;50.728;7.108;2022-08-19T14:43:56;27.60;65.10
5466;DHT22;2755;50.728;7.108;2022-08-19T14:46:25;27.70;65.20
5466;DHT22;2755;50.728;7.108;2022-08-19T14:48:51;27.50;65.90
5466;DHT22;2755;50.728;7.108;2022-08-19T14:51:18;27.60;63.20
5466;DHT22;2755;50.728;7.108;2022-08-19T14:53:45;27.50;66.30
5466;DHT22;2755;50.728;7.108;2022-08-19T14:56:15;27.30;64.20
5466;DHT22;2755;50.728;7.108;2022-08-19T14:58:42;27.80;65.00
5466;DHT22;2755;50.728;7.108;2022-08-19T15:01:09;27.20;61.90
5466;DHT22;2755;50.728;7.108;2022-08-19T15:03:36;27.20;62.60
5466;DHT22;2755;50.728;7.108;2022-08-19T15:06:03;27.20;62.10
5466;DHT22;2755;50.728;7.108;2022-08-19T15:08:31;27.20;62.70
5466;DHT22;2755;50.728;7.108;2022-08-19T15:10:58;27.00;62.50
5466;DHT22;2755;50.728;7.108;2022-08-19T15:13:25;26.90;63.00
5466;DHT22;2755;50.728;7.108;2022-08-19T15:15:52;26.70;66.20
5466;DHT22;2755;50.728;7.108;2022-08-19T15:18:19;26.70;63.90
5466;DHT22;2755;50.728;7.108;2022-08-19T15:20:46;26.40;65.80
5466;DHT22;2755;50.728;7.108;2022-08-19T15:23:13;26.90;66.30
5466;DHT22;2755;50.728;7.108;2022-08-19T15:25:40;26.90;66.30
5466;DHT22;2755;50.728;7.108;2022-08-19T15:28:07;26.80;65.80
5466;DHT22;2755;50.728;7.108;2022-08-19T15:30:37;26.50;63.30
5466;DHT22;2755;50.728;7.108;2022-08-19T15:33:03;27.00;62.80
5466;DHT22;2755;50.728;7.108;2022-08-19T15:37:55;26.60;63.80
5466;DHT22;2755;50.728;7.108;2022-08-19T15:40:22;26.80;65.90
5466;DHT22;2755;50.728;7.108;2022-08-19T15:42:49;26.80;65.00
5466;DHT22;2755;50.728;7.108;2022-08-19T15:45:19;26.70;61.40
5466;DHT22;2755;50.728;7.108;2022-08-19T15:47:45;26.70;63.40
5466;DHT22;2755;50.728;7.108;2022-08-19T15:50:22;26.60;63.10
5466;DHT22;2755;50.728;7.108;2022-08-19T15:52:50;26.40;62.50
5466;DHT22;2755;50.728;7.108;2022-08-19T15:55:23;26.60;64.00
5466;DHT22;2755;50.728;7.108;2022-08-19T16:00:33;26.40;65.70
5466;DHT22;2755;50.728;7.108;2022-08-19T16:03:17;26.50;65.00
5466;DHT22;2755;50.728;7.108;2022-08-19T16:11:17;26.60;67.50
5466;DHT22;2755;50.728;7.108;2022-08-19T16:13:48;26.10;66.70
5466;DHT22;2755;50.728;7.108;2022-08-19T16:16:17;26.40;66.60
5466;DHT22;2755;50.728;7.108;2022-08-19T16:18:43;26.60;69.40
5466;DHT22;2755;50.728;7.108;2022-08-19T16:23:35;25.10;65.20
5466;DHT22;2755;50.728;7.108;2022-08-19T16:28:26;26.30;67.10
5466;DHT22;2755;50.728;7.108;2022-08-19T16:38:11;26.30;69.80
5466;DHT22;2755;50.728;7.108;2022-08-19T16:40:37;26.20;72.30
5466;DHT22;2755;50.728;7.108;2022-08-19T16:43:03;26.00;70.30
5466;DHT22;2755;50.728;7.108;2022-08-19T16:45:29;25.60;73.10
5466;DHT22;2755;50.728;7.108;2022-08-19T16:47:54;26.30;71.70
5466;DHT22;2755;50.728;7.108;2022-08-19T16:50:22;25.60;73.90
5466;DHT22;2755;50.728;7.108;2022-08-19T16:52:48;25.40;73.00
5466;DHT22;2755;50.728;7.108;2022-08-19T16:57:41;25.00;74.90
5466;DHT22;2755;50.728;7.108;2022-08-19T17:02:35;25.50;75.00
5466;DHT22;2755;50.728;7.108;2022-08-19T17:05:01;25.50;71.30
5466;DHT22;2755;50.728;7.108;2022-08-19T17:07:28;26.20;71.70
5466;DHT22;2755;50.728;7.108;2022-08-19T17:09:55;26.30;74.50
5466;DHT22;2755;50.728;7.108;2022-08-19T17:12:25;26.00;73.90
5466;DHT22;2755;50.728;7.108;2022-08-19T17:14:51;26.10;74.30
5466;DHT22;2755;50.728;7.108;2022-08-19T17:17:16;26.00;72.40
5466;DHT22;2755;50.728;7.108;2022-08-19T17:19:42;26.30;75.20
5466;DHT22;2755;50.728;7.108;2022-08-19T17:24:36;26.10;73.10
5466;DHT22;2755;50.728;7.108;2022-08-19T17:27:02;25.90;76.40
5466;DHT22;2755;50.728;7.108;2022-08-19T17:29:32;25.80;75.90
5466;DHT22;2755;50.728;7.108;2022-08-19T17:31:58;25.90;76.60
5466;DHT22;2755;50.728;7.108;2022-08-19T17:34:24;25.70;76.20
5466;DHT22;2755;50.728;7.108;2022-08-19T17:36:49;25.50;76.00
5466;DHT22;2755;50.728;7.108;2022-08-19T17:41:41;25.50;78.30
5466;DHT22;2755;50.728;7.108;2022-08-19T17:44:08;25.30;79.50
5466;DHT22;2755;50.728;7.108;2022-08-19T17:46:34;25.00;81.30
5466;DHT22;2755;50.728;7.108;2022-08-19T17:53:58;24.60;82.90
5466;DHT22;2755;50.728;7.108;2022-08-19T17:58:56;24.40;83.30
5466;DHT22;2755;50.728;7.108;2022-08-19T18:01:21;24.20;85.50
5466;DHT22;2755;50.728;7.108;2022-08-19T18:06:14;24.00;86.70
5466;DHT22;2755;50.728;7.108;2022-08-19T18:08:41;24.60;89.10
5466;DHT22;2755;50.728;7.108;2022-08-19T18:11:08;23.90;87.40
5466;DHT22;2755;50.728;7.108;2022-08-19T18:13:34;24.00;89.20
5466;DHT22;2755;50.728;7.108;2022-08-19T18:16:01;24.00;90.10
5466;DHT22;2755;50.728;7.108;2022-08-19T18:18:27;23.70;90.10
5466;DHT22;2755;50.728;7.108;2022-08-19T18:20:54;23.70;90.00
5466;DHT22;2755;50.728;7.108;2022-08-19T18:23:20;23.60;91.50
5466;DHT22;2755;50.728;7.108;2022-08-19T18:25:46;23.70;92.50
5466;DHT22;2755;50.728;7.108;2022-08-19T18:30:38;23.40;93.20
5466;DHT22;2755;50.728;7.108;2022-08-19T18:33:06;23.30;91.80
5466;DHT22;2755;50.728;7.108;2022-08-19T18:43:38;22.50;94.40
5466;DHT22;2755;50.728;7.108;2022-08-19T18:49:08;23.00;96.40
5466;DHT22;2755;50.728;7.108;2022-08-19T18:54:01;22.50;97.70
5466;DHT22;2755;50.728;7.108;2022-08-19T18:58:57;23.10;98.00
5466;DHT22;2755;50.728;7.108;2022-08-19T19:01:27;22.50;97.50
5466;DHT22;2755;50.728;7.108;2022-08-19T19:03:54;22.40;99.50
5466;DHT22;2755;50.728;7.108;2022-08-19T19:06:35;22.40;98.60
5466;DHT22;2755;50.728;7.108;2022-08-19T19:09:04;22.30;98.90
5466;DHT22;2755;50.728;7.108;2022-08-19T19:11:34;22.30;99.30
5466;DHT22;2755;50.728;7.108;2022-08-19T19:14:03;22.20;99.90
5466;DHT22;2755;50.728;7.108;2022-08-19T19:16:30;22.20;99.90
5466;DHT22;2755;50.728;7.108;2022-08-19T19:21:25;22.20;99.90
5466;DHT22;2755;50.728;7.108;2022-08-19T19:23:52;21.70;99.90
5466;DHT22;2755;50.728;7.108;2022-08-19T19:28:46;22.20;99.90
5466;DHT22;2755;50.728;7.108;2022-08-19T19:33:41;22.10;99.90
5466;DHT22;2755;50.728;7.108;2022-08-19T19:38:33;21.90;99.90
5466;DHT22;2755;50.728;7.108;2022-08-19T19:40:59;21.90;99.90
5466;DHT22;2755;50.728;7.108;2022-08-19T19:48:18;22.10;99.90
5466;DHT22;2755;50.728;7.108;2022-08-19T20:00:35;21.80;99.90
5466;DHT22;2755;50.728;7.108;2022-08-19T20:03:00;22.30;99.90
5466;DHT22;2755;50.728;7.108;2022-08-19T20:05:27;22.10;99.90
5466;DHT22;2755;50.728;7.108;2022-08-19T20:07:53;22.00;99.90
5466;DHT22;2755;50.728;7.108;2022-08-19T20:10:39;21.90;99.90
5466;DHT22;2755;50.728;7.108;2022-08-19T20:15:32;22.00;99.90
5466;DHT22;2755;50.728;7.108;2022-08-19T20:17:58;22.00;99.90
5466;DHT22;2755;50.728;7.108;2022-08-19T20:20:25;22.40;99.90
5466;DHT22;2755;50.728;7.108;2022-08-19T20:22:51;21.80;99.90
5466;DHT22;2755;50.728;7.108;2022-08-19T20:25:19;21.90;99.90
5466;DHT22;2755;50.728;7.108;2022-08-19T20:27:45;22.40;99.90
5466;DHT22;2755;50.728;7.108;2022-08-19T20:30:13;22.00;99.90
5466;DHT22;2755;50.728;7.108;2022-08-19T20:32:40;22.20;99.90
5466;DHT22;2755;50.728;7.108;2022-08-19T20:35:08;22.10;99.90
5466;DHT22;2755;50.728;7.108;2022-08-19T20:40:00;22.80;99.90
5466;DHT22;2755;50.728;7.108;2022-08-19T20:42:27;22.10;99.90
5466;DHT22;2755;50.728;7.108;2022-08-19T20:47:18;22.40;99.90
5466;DHT22;2755;50.728;7.108;2022-08-19T20:49:44;21.90;99.90
5466;DHT22;2755;50.728;7.108;2022-08-19T20:57:02;22.00;99.90
5466;DHT22;2755;50.728;7.108;2022-08-19T21:06:49;22.50;99.90
5466;DHT22;2755;50.728;7.108;2022-08-19T21:11:41;22.10;99.90
5466;DHT22;2755;50.728;7.108;2022-08-19T21:23:51;21.90;99.90
5466;DHT22;2755;50.728;7.108;2022-08-19T21:31:09;22.10;99.90
5466;DHT22;2755;50.728;7.108;2022-08-19T21:33:36;21.50;99.90
5466;DHT22;2755;50.728;7.108;2022-08-19T21:36:03;21.60;99.90
5466;DHT22;2755;50.728;7.108;2022-08-19T21:43:22;21.90;99.90
5466;DHT22;2755;50.728;7.108;2022-08-19T21:45:48;21.60;99.90